createdAt,value
2019-01-21T00:00:39.076Z,23.23
2019-01-21T00:03:14.379Z,24.23
2019-01-21T00:05:40.554Z,23.85
2019-01-21T00:08:10.106Z,22.80
2019-01-21T00:10:39.530Z,24.25
2019-01-21T00:13:08.958Z,25.15
2019-01-21T00:15:38.423Z,25.17
2019-01-21T00:18:07.910Z,25.57
2019-01-21T00:20:37.343Z,26.30
2019-01-21T00:23:08.963Z,24.55
2019-01-21T00:25:38.640Z,24.35
2019-01-21T00:28:08.195Z,24.32
2019-01-21T00:30:37.620Z,24.27
2019-01-21T00:33:09.133Z,24.72
2019-01-21T00:35:42.155Z,24.60
2019-01-21T00:38:11.608Z,23.15
2019-01-21T00:40:41.100Z,23.95
2019-01-21T00:43:10.741Z,23.27
2019-01-21T00:45:40.699Z,24.05
2019-01-21T00:48:10.147Z,23.80
2019-01-21T00:50:39.574Z,22.95
2019-01-21T00:53:09.027Z,23.40
2019-01-21T00:55:38.499Z,24.30
2019-01-21T00:58:08.035Z,24.00
2019-01-21T01:00:37.469Z,23.83
2019-01-21T01:03:06.890Z,22.58
2019-01-21T01:05:36.382Z,23.67
2019-01-21T01:08:06.354Z,22.30
2019-01-21T01:10:36.323Z,24.32
2019-01-21T01:13:05.743Z,23.67
2019-01-21T01:15:35.642Z,23.38
2019-01-21T01:18:05.523Z,26.70
2019-01-21T01:20:34.946Z,24.27
2019-01-21T01:23:06.012Z,22.70
2019-01-21T01:25:35.351Z,22.50
2019-01-21T01:28:04.868Z,23.35
2019-01-21T01:30:34.306Z,21.27
2019-01-21T01:33:03.712Z,20.57
2019-01-21T01:35:33.107Z,23.35
2019-01-21T01:38:02.542Z,23.38
2019-01-21T01:40:32.440Z,23.47
2019-01-21T01:43:02.118Z,23.80
2019-01-21T01:45:31.614Z,23.52
2019-01-21T01:48:02.435Z,22.90
2019-01-21T01:50:32.120Z,23.42
2019-01-21T01:53:02.558Z,22.98
2019-01-21T01:55:32.434Z,23.38
2019-01-21T01:58:02.856Z,22.27
2019-01-21T02:00:32.851Z,23.00
2019-01-21T02:03:05.673Z,23.10
2019-01-21T02:05:35.155Z,22.00
2019-01-21T02:08:05.058Z,20.95
2019-01-21T02:10:34.571Z,23.73
2019-01-21T02:13:04.679Z,22.70
2019-01-21T02:15:34.179Z,21.57
2019-01-21T02:18:03.960Z,22.00
2019-01-21T02:20:33.674Z,23.10
2019-01-21T02:23:03.767Z,22.93
2019-01-21T02:25:41.707Z,22.55
2019-01-21T02:28:32.534Z,23.18
2019-01-21T02:31:29.346Z,20.85
2019-01-21T02:34:17.650Z,21.52
2019-01-21T02:37:04.390Z,22.67
2019-01-21T02:39:51.952Z,20.80
2019-01-21T02:42:27.123Z,21.42
2019-01-21T02:45:14.611Z,21.40
2019-01-21T02:47:49.999Z,22.65
2019-01-21T02:50:34.399Z,22.45
2019-01-21T02:53:15.896Z,23.52
2019-01-21T02:56:09.374Z,24.05
2019-01-21T02:59:01.248Z,22.90
2019-01-21T03:01:50.684Z,22.35
2019-01-21T03:04:39.980Z,20.72
2019-01-21T03:07:18.476Z,22.77
2019-01-21T03:09:54.030Z,23.15
2019-01-21T03:12:41.504Z,23.80
2019-01-21T03:15:33.265Z,22.05
2019-01-21T03:18:08.367Z,20.82
2019-01-21T03:21:03.586Z,22.00
2019-01-21T03:23:45.029Z,21.37
2019-01-21T03:26:34.119Z,22.15
2019-01-21T03:29:22.996Z,19.48
2019-01-21T03:32:01.387Z,20.65
2019-01-21T03:34:45.329Z,21.20
2019-01-21T03:37:34.410Z,20.30
2019-01-21T03:40:25.247Z,20.85
2019-01-21T03:43:15.584Z,21.37
2019-01-21T03:46:19.579Z,21.62
2019-01-21T03:48:50.899Z,23.87
2019-01-21T03:51:37.983Z,24.98
2019-01-21T03:54:13.228Z,22.82
2019-01-21T03:56:45.943Z,22.65
2019-01-21T03:59:33.904Z,23.50
2019-01-21T04:02:32.162Z,23.05
2019-01-21T04:05:20.367Z,23.30
2019-01-21T04:08:11.599Z,21.45
2019-01-21T04:10:53.295Z,21.02
2019-01-21T04:13:37.866Z,22.73
2019-01-21T04:16:25.796Z,22.25
2019-01-21T04:19:01.203Z,22.07
2019-01-21T04:21:39.476Z,21.57
2019-01-21T04:24:29.790Z,22.60
2019-01-21T04:27:02.297Z,21.37
2019-01-21T04:30:09.078Z,21.70
2019-01-21T04:33:11.671Z,21.68
2019-01-21T04:36:03.371Z,21.73
2019-01-21T04:38:39.707Z,20.85
2019-01-21T04:41:24.108Z,20.17
2019-01-21T04:44:05.518Z,21.80
2019-01-21T04:47:01.930Z,22.05
2019-01-21T04:49:40.250Z,21.60
2019-01-21T04:52:21.063Z,21.07
2019-01-21T04:55:02.811Z,20.60
2019-01-21T04:57:41.123Z,20.40
2019-01-21T05:00:34.687Z,21.17
2019-01-21T05:03:16.044Z,20.37
2019-01-21T05:06:03.603Z,20.08
2019-01-21T05:08:47.390Z,20.02
2019-01-21T05:11:36.539Z,19.15
2019-01-21T05:14:21.299Z,20.88
2019-01-21T05:16:59.757Z,21.82
2019-01-21T05:19:48.682Z,20.52
2019-01-21T05:22:21.197Z,20.62
2019-01-21T05:25:22.630Z,21.57
2019-01-21T05:28:14.024Z,19.23
2019-01-21T05:31:01.740Z,18.37
2019-01-21T05:33:40.694Z,18.35
2019-01-21T05:36:16.331Z,18.37
2019-01-21T05:39:05.781Z,19.92
2019-01-21T05:41:46.891Z,18.85
2019-01-21T05:44:19.363Z,19.48
2019-01-21T05:47:16.517Z,19.98
2019-01-21T05:50:11.815Z,20.15
2019-01-21T05:53:09.935Z,20.32
2019-01-21T05:56:00.654Z,20.10
2019-01-21T05:58:38.818Z,19.45
2019-01-21T06:01:44.691Z,19.23
2019-01-21T06:04:23.087Z,19.57
2019-01-21T06:07:18.672Z,20.12
2019-01-21T06:10:12.748Z,20.45
2019-01-21T06:13:03.842Z,19.98
2019-01-21T06:15:45.222Z,20.40
2019-01-21T06:18:30.319Z,21.07
2019-01-21T06:21:24.003Z,19.73
2019-01-21T06:24:08.227Z,21.45
2019-01-21T06:27:01.469Z,19.67
2019-01-21T06:29:36.871Z,20.82
2019-01-21T06:32:20.992Z,21.60
2019-01-21T06:34:56.039Z,21.90
2019-01-21T06:37:34.174Z,22.65
2019-01-21T06:40:33.499Z,22.37
2019-01-21T06:43:18.756Z,23.18
2019-01-21T06:46:16.586Z,21.85
2019-01-21T06:49:12.826Z,22.42
2019-01-21T06:52:00.375Z,20.90
2019-01-21T06:55:07.904Z,21.62
2019-01-21T06:57:43.150Z,21.30
2019-01-21T07:00:31.578Z,23.45
2019-01-21T07:03:13.764Z,23.65
2019-01-21T07:06:08.720Z,22.65
2019-01-21T07:08:52.466Z,23.18
2019-01-21T07:11:30.435Z,24.37
2019-01-21T07:14:24.590Z,24.15
2019-01-21T07:17:00.103Z,26.33
2019-01-21T07:19:49.810Z,25.45
2019-01-21T07:22:55.256Z,22.73
2019-01-21T07:25:39.824Z,23.22
2019-01-21T07:28:12.298Z,23.60
2019-01-21T07:31:04.227Z,24.65
2019-01-21T07:33:45.356Z,23.87
2019-01-21T07:36:24.137Z,23.92
2019-01-21T07:38:56.551Z,23.70
2019-01-21T07:41:40.642Z,24.25
2019-01-21T07:44:21.910Z,24.10
2019-01-21T07:47:11.353Z,24.75
2019-01-21T07:49:52.452Z,25.02
2019-01-21T07:52:33.591Z,23.85
2019-01-21T07:55:22.330Z,24.45
2019-01-21T07:58:17.863Z,26.05
2019-01-21T08:01:05.307Z,24.25
2019-01-21T08:03:56.306Z,24.87
2019-01-21T08:06:29.115Z,24.00
2019-01-21T08:09:18.273Z,24.02
2019-01-21T08:11:54.114Z,24.77
2019-01-21T08:14:32.438Z,24.40
2019-01-21T08:17:04.854Z,24.10
2019-01-21T08:19:55.523Z,24.00
2019-01-21T08:22:36.524Z,25.37
2019-01-21T08:25:23.763Z,24.27
2019-01-21T08:27:56.229Z,24.47
2019-01-21T08:30:43.696Z,24.40
2019-01-21T08:33:30.907Z,23.67
2019-01-21T08:36:21.565Z,23.80
2019-01-21T08:39:02.977Z,23.70
2019-01-21T08:41:47.681Z,22.70
2019-01-21T08:44:49.041Z,24.10
2019-01-21T08:47:24.272Z,23.32
2019-01-21T08:49:59.463Z,23.73
2019-01-21T08:52:46.797Z,23.02
2019-01-21T08:55:37.626Z,24.25
2019-01-21T08:58:37.054Z,23.02
2019-01-21T09:01:12.254Z,23.45
2019-01-21T09:03:53.675Z,23.85
2019-01-21T09:06:50.365Z,21.95
2019-01-21T09:09:23.294Z,20.77
2019-01-21T09:12:13.710Z,20.37
2019-01-21T09:15:02.904Z,20.90
2019-01-21T09:17:38.688Z,18.87
2019-01-21T09:20:19.951Z,19.95
2019-01-21T09:23:08.936Z,20.23
2019-01-21T09:25:53.516Z,20.55
2019-01-21T09:28:41.040Z,18.85
2019-01-21T09:31:23.000Z,18.37
2019-01-21T09:34:03.916Z,19.10
2019-01-21T09:36:42.593Z,21.57
2019-01-21T09:39:23.884Z,21.48
2019-01-21T09:42:23.463Z,23.57
2019-01-21T09:45:14.253Z,22.62
2019-01-21T09:47:42.640Z,22.58
2019-01-21T09:50:12.341Z,24.20
2019-01-21T09:52:43.101Z,23.77
2019-01-21T09:55:14.764Z,25.05
2019-01-21T09:57:46.138Z,25.12
2019-01-21T10:00:18.435Z,26.07
2019-01-21T10:02:48.910Z,24.65
2019-01-21T10:05:18.404Z,26.07
2019-01-21T10:08:03.034Z,27.15
2019-01-21T10:10:38.151Z,27.50
2019-01-21T10:13:16.811Z,26.50
2019-01-21T10:15:51.921Z,27.07
2019-01-21T10:18:24.505Z,25.85
2019-01-21T10:21:16.627Z,26.62
2019-01-21T10:23:55.016Z,25.90
2019-01-21T10:26:33.805Z,25.88
2019-01-21T10:29:12.845Z,23.50
2019-01-21T10:31:51.113Z,24.45
2019-01-21T10:34:35.723Z,24.70
2019-01-21T10:37:29.060Z,23.77
2019-01-21T10:40:11.345Z,22.95
2019-01-21T10:43:03.496Z,23.00
2019-01-21T10:45:42.102Z,24.20
2019-01-21T10:48:17.381Z,24.12
2019-01-21T10:50:58.646Z,23.98
2019-01-21T10:53:43.345Z,24.40
2019-01-21T10:56:41.023Z,23.10
2019-01-21T10:59:19.541Z,22.70
2019-01-21T11:02:02.743Z,21.70
2019-01-21T11:04:47.475Z,21.68
2019-01-21T11:07:25.895Z,21.25
2019-01-21T11:09:58.340Z,17.95
2019-01-21T11:12:33.408Z,19.77
2019-01-21T11:15:26.913Z,20.30
2019-01-21T11:17:59.370Z,20.52
2019-01-21T11:20:41.425Z,18.27
2019-01-21T11:23:26.336Z,17.98
2019-01-21T11:26:16.765Z,16.32
2019-01-21T11:29:01.928Z,15.75
2019-01-21T11:31:36.985Z,16.00
2019-01-21T11:34:25.870Z,15.25
2019-01-21T11:37:20.650Z,13.05
2019-01-21T11:40:13.760Z,11.88
2019-01-21T11:42:48.971Z,11.22
2019-01-21T11:45:42.223Z,10.95
2019-01-21T11:48:43.177Z,10.32
2019-01-21T11:51:18.308Z,10.85
2019-01-21T11:54:07.463Z,10.78
2019-01-21T11:56:56.408Z,11.70
2019-01-21T11:59:28.849Z,11.65
2019-01-21T12:02:10.495Z,10.60
2019-01-21T12:04:47.112Z,10.10
2019-01-21T12:07:22.469Z,11.15
2019-01-21T12:10:11.466Z,10.05
2019-01-21T12:12:49.554Z,9.18
2019-01-21T12:15:27.805Z,8.95
2019-01-21T12:18:16.778Z,8.85
2019-01-21T12:21:15.941Z,10.53
2019-01-21T12:23:54.202Z,9.40
2019-01-21T12:26:29.405Z,9.83
2019-01-21T12:29:28.436Z,10.65
2019-01-21T12:32:12.956Z,11.00
2019-01-21T12:35:03.432Z,10.53
2019-01-21T12:37:35.937Z,11.03
2019-01-21T12:40:32.716Z,11.73
2019-01-21T12:43:11.078Z,11.63
2019-01-21T12:46:06.626Z,12.95
2019-01-21T12:48:39.072Z,12.65
2019-01-21T12:51:29.728Z,12.60
2019-01-21T12:54:20.503Z,13.13
2019-01-21T12:57:11.308Z,14.05
2019-01-21T13:00:06.214Z,13.95
2019-01-21T13:02:47.307Z,14.07
2019-01-21T13:05:28.868Z,13.95
2019-01-21T13:08:04.591Z,14.63
2019-01-21T13:10:46.222Z,13.88
2019-01-21T13:13:21.776Z,13.40
2019-01-21T13:16:12.379Z,15.35
2019-01-21T13:18:57.792Z,14.80
2019-01-21T13:21:38.989Z,14.10
2019-01-21T13:24:20.569Z,23.73
2019-01-21T13:26:52.998Z,15.48
2019-01-21T13:29:28.469Z,23.80
2019-01-21T13:32:17.253Z,22.27
2019-01-21T13:35:06.064Z,14.65
2019-01-21T13:37:56.203Z,13.22
2019-01-21T13:40:47.172Z,13.40
2019-01-21T13:43:40.217Z,15.10
2019-01-21T13:46:18.846Z,12.90
2019-01-21T13:48:54.597Z,18.30
2019-01-21T13:51:33.072Z,16.57
2019-01-21T13:54:13.918Z,16.05
2019-01-21T13:56:52.121Z,13.00
2019-01-21T13:59:47.002Z,12.47
2019-01-21T14:02:20.035Z,12.80
2019-01-21T14:05:04.551Z,11.60
2019-01-21T14:07:54.438Z,11.70
2019-01-21T14:10:29.721Z,12.68
2019-01-21T14:13:17.418Z,11.65
2019-01-21T14:15:59.140Z,12.55
2019-01-21T14:18:43.598Z,11.45
2019-01-21T14:21:27.724Z,12.20
2019-01-21T14:24:16.768Z,11.80
2019-01-21T14:27:06.135Z,12.95
2019-01-21T14:29:47.269Z,12.58
2019-01-21T14:32:42.347Z,12.10
2019-01-21T14:35:36.118Z,12.10
2019-01-21T14:38:22.907Z,12.40
2019-01-21T14:41:10.251Z,12.53
2019-01-21T14:43:48.731Z,12.35
2019-01-21T14:46:50.576Z,12.53
2019-01-21T14:49:23.062Z,12.30
2019-01-21T14:52:21.206Z,12.20
2019-01-21T14:55:13.616Z,12.70
2019-01-21T14:57:46.104Z,13.00
2019-01-21T15:00:27.449Z,13.83
2019-01-21T15:03:09.368Z,15.00
2019-01-21T15:06:15.423Z,14.07
2019-01-21T15:08:47.976Z,18.73
2019-01-21T15:11:40.991Z,19.95
2019-01-21T15:14:20.161Z,18.45
2019-01-21T15:17:09.127Z,14.87
2019-01-21T15:19:40.283Z,15.45
2019-01-21T15:22:24.625Z,16.62
2019-01-21T15:25:21.700Z,18.02
2019-01-21T15:28:13.297Z,17.73
2019-01-21T15:31:03.389Z,18.15
2019-01-21T15:33:48.064Z,18.77
2019-01-21T15:36:29.528Z,17.25
2019-01-21T15:39:08.221Z,15.83
2019-01-21T15:41:40.749Z,17.73
2019-01-21T15:44:14.610Z,16.57
2019-01-21T15:47:17.221Z,17.02
2019-01-21T15:50:15.219Z,15.00
2019-01-21T15:52:50.458Z,16.05
2019-01-21T15:55:32.564Z,16.10
2019-01-21T15:58:18.748Z,16.45
2019-01-21T16:03:52.941Z,17.12
2019-01-21T16:06:40.126Z,18.60
2019-01-21T16:09:30.703Z,23.22
2019-01-21T16:12:37.591Z,20.02
2019-01-21T16:15:29.420Z,18.73
2019-01-21T16:18:49.907Z,17.50
2019-01-21T16:21:30.892Z,17.10
2019-01-21T16:24:10.599Z,18.07
2019-01-21T16:26:43.515Z,18.45
2019-01-21T16:29:15.967Z,17.80
2019-01-21T16:31:48.172Z,18.32
2019-01-21T16:34:26.402Z,18.65
2019-01-21T16:37:10.690Z,20.02
2019-01-21T16:39:49.052Z,20.90
2019-01-21T16:42:18.370Z,20.72
2019-01-21T16:44:48.290Z,20.12
2019-01-21T16:47:17.716Z,21.00
2019-01-21T16:49:47.232Z,21.75
2019-01-21T16:52:16.967Z,22.17
2019-01-21T16:54:46.325Z,22.95
2019-01-21T16:57:15.847Z,21.70
2019-01-21T16:59:45.272Z,22.77
2019-01-21T17:02:14.798Z,22.77
2019-01-21T17:04:44.181Z,24.40
2019-01-21T17:07:13.676Z,23.35
2019-01-21T17:09:43.164Z,24.05
2019-01-21T17:12:12.651Z,24.35
2019-01-21T17:14:42.603Z,23.77
2019-01-21T17:19:41.574Z,23.75
2019-01-21T17:22:10.992Z,23.20
2019-01-21T17:24:40.412Z,28.62
2019-01-21T17:27:09.921Z,24.23
2019-01-21T17:29:39.282Z,24.52
2019-01-21T17:32:08.864Z,25.27
2019-01-21T17:34:38.727Z,23.57
2019-01-21T17:37:08.625Z,24.77
2019-01-21T17:39:38.532Z,23.77
2019-01-21T17:42:08.053Z,25.88
2019-01-21T17:44:37.674Z,24.90
2019-01-21T17:47:07.832Z,24.70
2019-01-21T17:49:37.846Z,24.70
2019-01-21T17:52:07.789Z,25.55
2019-01-21T17:54:38.186Z,24.27
2019-01-21T17:57:07.799Z,24.80
2019-01-21T17:59:37.237Z,24.80
2019-01-21T18:02:06.888Z,24.60
2019-01-21T18:04:36.797Z,33.30
2019-01-21T18:07:06.746Z,31.93
2019-01-21T18:09:36.578Z,26.93
2019-01-21T18:12:06.080Z,24.80
2019-01-21T18:14:35.816Z,24.12
2019-01-21T18:17:05.250Z,23.75
2019-01-21T18:19:34.662Z,23.52
2019-01-21T18:22:04.692Z,25.05
2019-01-21T18:24:35.307Z,24.20
2019-01-21T18:27:04.797Z,23.80
2019-01-21T18:29:34.179Z,22.20
2019-01-21T18:32:04.263Z,24.32
2019-01-21T18:34:33.663Z,29.00
2019-01-21T18:37:03.102Z,22.15
2019-01-21T18:39:32.547Z,24.72
2019-01-21T18:42:02.611Z,22.87
2019-01-21T18:44:34.501Z,22.40
2019-01-21T18:47:05.487Z,23.05
2019-01-21T18:49:34.931Z,22.77
2019-01-21T18:52:04.870Z,24.72
2019-01-21T18:54:34.347Z,22.58
2019-01-21T18:57:03.708Z,23.65
2019-01-21T18:59:33.214Z,23.30
2019-01-21T19:02:02.632Z,23.35
2019-01-21T19:04:32.594Z,23.07
2019-01-21T19:07:02.463Z,22.37
2019-01-21T19:09:32.389Z,23.92
2019-01-21T19:12:01.843Z,23.42
2019-01-21T19:14:31.895Z,22.95
2019-01-21T19:17:01.381Z,24.32
2019-01-21T19:19:31.185Z,22.73
2019-01-21T19:22:01.051Z,23.40
2019-01-21T19:24:30.472Z,23.57
2019-01-21T19:27:00.446Z,23.30
2019-01-21T19:29:30.081Z,23.47
2019-01-21T19:31:59.568Z,23.10
2019-01-21T19:34:33.295Z,23.47
2019-01-21T19:37:02.658Z,22.82
2019-01-21T19:39:32.975Z,25.05
2019-01-21T19:42:02.872Z,22.35
2019-01-21T19:44:32.439Z,24.80
2019-01-21T19:47:02.776Z,25.08
2019-01-21T19:49:34.543Z,26.97
2019-01-21T19:52:04.046Z,25.88
2019-01-21T19:54:33.995Z,25.97
2019-01-21T19:57:03.992Z,24.72
2019-01-21T19:59:33.408Z,27.42
2019-01-21T20:02:02.848Z,26.30
2019-01-21T20:04:32.287Z,27.65
2019-01-21T20:07:02.443Z,26.30
2019-01-21T20:09:32.927Z,27.82
2019-01-21T20:12:02.446Z,26.33
2019-01-21T20:14:32.434Z,27.55
2019-01-21T20:17:02.162Z,27.07
2019-01-21T20:19:31.695Z,27.93
2019-01-21T20:22:07.056Z,26.75
2019-01-21T20:24:32.190Z,27.60
2019-01-21T20:27:03.030Z,26.52
2019-01-21T20:29:32.487Z,28.17
2019-01-21T20:32:02.180Z,26.68
2019-01-21T20:34:31.543Z,28.60
2019-01-21T20:37:01.195Z,28.40
2019-01-21T20:39:30.727Z,28.00
2019-01-21T20:42:00.825Z,28.15
2019-01-21T20:44:30.834Z,28.40
2019-01-21T20:47:01.198Z,28.85
2019-01-21T20:49:31.040Z,27.05
2019-01-21T20:52:00.579Z,27.32
2019-01-21T20:54:30.070Z,27.65
2019-01-21T20:56:59.513Z,28.50
2019-01-21T20:59:28.935Z,26.37
2019-01-21T21:02:10.755Z,28.07
2019-01-21T21:04:42.009Z,27.62
2019-01-21T21:07:12.765Z,27.98
2019-01-21T21:09:43.285Z,26.27
2019-01-21T21:12:25.823Z,26.57
2019-01-21T21:14:55.707Z,27.87
2019-01-21T21:17:27.376Z,26.65
2019-01-21T21:22:40.509Z,26.93
2019-01-21T21:25:15.646Z,28.15
2019-01-21T21:27:52.918Z,28.52
2019-01-21T21:30:27.036Z,27.95
2019-01-21T21:33:00.493Z,28.05
2019-01-21T21:35:31.899Z,27.95
2019-01-21T21:38:06.077Z,29.48
2019-01-21T21:40:36.323Z,29.52
2019-01-21T21:43:09.829Z,30.15
2019-01-21T21:45:39.790Z,30.15
2019-01-21T21:48:14.813Z,26.65
2019-01-21T21:50:44.809Z,28.98
2019-01-21T21:53:19.827Z,27.75
2019-01-21T21:55:51.599Z,27.58
2019-01-21T21:58:24.774Z,26.75
2019-01-21T22:00:55.852Z,27.80
2019-01-21T22:03:35.903Z,27.13
2019-01-21T22:06:11.240Z,26.27
2019-01-21T22:08:40.812Z,26.17
2019-01-21T22:11:11.371Z,26.77
2019-01-21T22:13:44.284Z,26.52
2019-01-21T22:16:18.103Z,27.50
2019-01-21T22:21:27.325Z,26.65
2019-01-21T22:23:58.763Z,26.57
2019-01-21T22:26:31.633Z,26.97
2019-01-21T22:29:02.182Z,26.55
2019-01-21T22:31:37.088Z,27.15
2019-01-21T22:34:06.644Z,27.00
2019-01-21T22:36:36.721Z,22.87
2019-01-21T22:39:08.086Z,24.77
2019-01-21T22:41:37.536Z,23.65
2019-01-21T22:44:25.229Z,23.45
2019-01-21T22:46:55.398Z,22.13
2019-01-21T22:49:25.041Z,20.43
2019-01-21T22:51:54.459Z,20.50
2019-01-21T22:54:23.976Z,22.20
2019-01-21T22:56:53.396Z,20.12
2019-01-21T22:59:23.382Z,20.77
2019-01-21T23:01:53.587Z,21.03
2019-01-21T23:04:23.242Z,21.12
2019-01-21T23:06:53.190Z,19.77
2019-01-21T23:09:23.166Z,17.27
2019-01-21T23:11:52.597Z,18.87
2019-01-21T23:14:22.055Z,19.12
2019-01-21T23:16:51.607Z,17.70
2019-01-21T23:19:21.123Z,16.95
2019-01-21T23:21:50.562Z,18.15
2019-01-21T23:24:21.548Z,16.70
2019-01-21T23:26:51.048Z,14.75
2019-01-21T23:29:21.178Z,14.73
2019-01-21T23:31:50.627Z,14.78
2019-01-21T23:34:21.379Z,13.08
2019-01-21T23:36:50.891Z,15.58
2019-01-21T23:39:21.152Z,12.05
2019-01-21T23:41:50.571Z,12.55
2019-01-21T23:44:20.013Z,13.22
2019-01-21T23:46:49.451Z,12.37
2019-01-21T23:49:19.291Z,13.22
2019-01-21T23:51:49.363Z,11.78
2019-01-21T23:54:18.815Z,11.08
2019-01-21T23:56:48.223Z,10.85
2019-01-21T23:59:17.678Z,9.20
